createdAt,value
2022-11-16T00:00:31.066Z,90.05
2022-11-16T00:01:33.557Z,89.66
2022-11-16T00:02:36.574Z,89.63
2022-11-16T00:03:38.395Z,90.02
2022-11-16T00:04:41.220Z,89.76
2022-11-16T00:05:42.790Z,90.07
2022-11-16T00:06:45.720Z,89.82
2022-11-16T00:07:47.266Z,89.82
2022-11-16T00:09:15.070Z,89.87
2022-11-16T00:10:16.911Z,90.18
2022-11-16T00:11:23.902Z,90.25
2022-11-16T00:12:26.760Z,90.01
2022-11-16T00:13:29.232Z,89.93
2022-11-16T00:14:33.534Z,89.98
2022-11-16T00:15:36.015Z,90.03
2022-11-16T00:16:37.710Z,89.73
2022-11-16T00:17:40.212Z,89.90
2022-11-16T00:18:41.899Z,90.04
2022-11-16T00:19:44.460Z,90.02
2022-11-16T00:20:46.148Z,90.01
2022-11-16T00:21:48.740Z,89.87
2022-11-16T00:22:50.256Z,90.18
2022-11-16T00:23:52.896Z,90.14
2022-11-16T00:24:55.374Z,90.10
2022-11-16T00:26:02.534Z,90.13
2022-11-16T00:27:05.047Z,89.89
2022-11-16T00:28:07.972Z,90.22
2022-11-16T00:29:15.838Z,90.24
2022-11-16T00:30:17.337Z,90.23
2022-11-16T00:31:20.360Z,90.29
2022-11-16T00:32:21.855Z,90.17
2022-11-16T00:33:24.322Z,89.93
2022-11-16T00:34:25.869Z,90.20
2022-11-16T00:35:30.173Z,90.26
2022-11-16T00:36:32.263Z,90.16
2022-11-16T00:37:34.756Z,90.27
2022-11-16T00:38:36.754Z,90.36
2022-11-16T00:39:39.365Z,90.36
2022-11-16T00:40:40.893Z,90.33
2022-11-16T00:41:44.711Z,90.23
2022-11-16T00:42:46.264Z,90.35
2022-11-16T00:43:50.082Z,90.04
2022-11-16T00:44:51.594Z,90.46
2022-11-16T00:45:54.588Z,90.73
2022-11-16T00:46:56.075Z,90.60
2022-11-16T00:48:00.587Z,90.45
2022-11-16T00:49:02.879Z,90.27
2022-11-16T00:50:06.845Z,90.51
2022-11-16T00:51:08.334Z,90.28
2022-11-16T00:52:10.868Z,90.42
2022-11-16T00:53:13.830Z,90.31
2022-11-16T00:54:16.310Z,90.20
2022-11-16T00:55:17.836Z,90.50
2022-11-16T00:56:20.440Z,90.39
2022-11-16T00:57:21.949Z,90.48
2022-11-16T00:58:24.864Z,90.58
2022-11-16T00:59:27.780Z,90.35
2022-11-16T01:00:30.350Z,90.51
2022-11-16T01:01:31.928Z,90.58
2022-11-16T01:02:34.444Z,90.64
2022-11-16T01:03:36.383Z,90.90
2022-11-16T01:04:38.873Z,90.45
2022-11-16T01:05:40.452Z,90.57
2022-11-16T01:06:42.912Z,90.68
2022-11-16T01:07:44.602Z,90.74
2022-11-16T01:08:47.464Z,90.56
2022-11-16T01:09:48.994Z,90.95
2022-11-16T01:10:51.471Z,90.70
2022-11-16T01:12:12.633Z,90.76
2022-11-16T01:13:14.152Z,90.61
2022-11-16T01:14:17.308Z,90.72
2022-11-16T01:15:22.450Z,90.78
2022-11-16T01:16:25.514Z,90.73
2022-11-16T01:17:27.239Z,90.60
2022-11-16T01:18:29.829Z,90.89
2022-11-16T01:19:31.477Z,91.03
2022-11-16T01:20:34.072Z,90.95
2022-11-16T01:21:35.634Z,91.07
2022-11-16T01:22:39.481Z,90.83
2022-11-16T01:23:41.340Z,91.23
2022-11-16T01:24:43.912Z,91.03
2022-11-16T01:25:45.517Z,91.04
2022-11-16T01:26:48.072Z,91.26
2022-11-16T01:27:49.780Z,90.93
2022-11-16T01:28:52.288Z,91.03
2022-11-16T01:29:53.805Z,91.06
2022-11-16T01:30:57.853Z,90.99
2022-11-16T01:31:59.475Z,90.90
2022-11-16T01:33:02.018Z,90.80
2022-11-16T01:34:03.526Z,91.10
2022-11-16T01:35:07.382Z,90.92
2022-11-16T01:36:14.570Z,91.24
2022-11-16T01:37:17.765Z,91.11
2022-11-16T01:38:19.394Z,91.11
2022-11-16T01:39:22.305Z,91.12
2022-11-16T01:40:23.814Z,91.20
2022-11-16T01:41:27.385Z,91.49
2022-11-16T01:42:31.375Z,91.02
2022-11-16T01:43:51.419Z,91.18
2022-11-16T01:45:00.723Z,91.31
2022-11-16T01:46:04.554Z,91.22
2022-11-16T01:47:09.968Z,91.16
2022-11-16T01:48:20.780Z,90.90
2022-11-16T01:49:25.404Z,91.17
2022-11-16T01:50:27.980Z,91.30
2022-11-16T01:51:30.229Z,91.27
2022-11-16T01:52:36.284Z,91.36
2022-11-16T01:53:41.015Z,91.69
2022-11-16T01:54:46.611Z,91.42
2022-11-16T01:55:49.452Z,91.44
2022-11-16T01:56:54.432Z,91.50
2022-11-16T01:57:56.868Z,91.51
2022-11-16T01:58:59.814Z,91.08
2022-11-16T02:00:02.907Z,91.27
2022-11-16T02:01:08.933Z,91.44
2022-11-16T02:02:10.510Z,91.49
2022-11-16T02:03:13.052Z,91.39
2022-11-16T02:04:14.741Z,91.42
2022-11-16T02:05:21.047Z,91.42
2022-11-16T02:06:33.787Z,91.44
2022-11-16T02:08:14.254Z,91.29
2022-11-16T02:09:52.864Z,91.51
2022-11-16T02:11:11.054Z,91.44
2022-11-16T02:12:26.884Z,91.49
2022-11-16T02:13:40.612Z,91.51
2022-11-16T02:15:03.569Z,91.63
2022-11-16T02:16:20.811Z,91.49
2022-11-16T02:17:32.059Z,91.62
2022-11-16T02:18:42.869Z,91.56
2022-11-16T02:20:09.550Z,91.46
2022-11-16T02:21:27.640Z,91.50
2022-11-16T02:22:43.694Z,91.84
2022-11-16T02:24:08.216Z,91.64
2022-11-16T02:25:13.738Z,91.72
2022-11-16T02:26:37.358Z,91.65
2022-11-16T02:28:00.314Z,91.73
2022-11-16T02:29:20.611Z,91.51
2022-11-16T02:30:23.212Z,91.77
2022-11-16T02:31:29.119Z,91.70
2022-11-16T02:32:35.793Z,91.62
2022-11-16T02:33:41.912Z,91.77
2022-11-16T02:34:48.502Z,91.69
2022-11-16T02:35:54.355Z,91.58
2022-11-16T02:36:58.126Z,91.83
2022-11-16T02:38:03.581Z,91.85
2022-11-16T02:39:10.481Z,91.90
2022-11-16T02:40:16.604Z,92.03
2022-11-16T02:41:22.224Z,92.04
2022-11-16T02:42:30.157Z,91.54
2022-11-16T02:43:36.120Z,91.83
2022-11-16T02:44:44.783Z,91.93
2022-11-16T02:45:50.823Z,91.82
2022-11-16T02:46:58.822Z,91.74
2022-11-16T02:48:06.232Z,91.72
2022-11-16T02:49:15.088Z,91.75
2022-11-16T02:50:19.522Z,91.81
2022-11-16T02:51:23.702Z,91.97
2022-11-16T02:52:28.494Z,92.08
2022-11-16T02:53:34.783Z,92.07
2022-11-16T02:54:36.304Z,91.88
2022-11-16T02:55:39.158Z,92.03
2022-11-16T02:56:43.830Z,92.02
2022-11-16T02:57:52.603Z,92.13
2022-11-16T02:58:54.623Z,92.02
2022-11-16T02:59:59.811Z,92.08
2022-11-16T03:01:05.986Z,92.09
2022-11-16T03:02:18.873Z,92.02
2022-11-16T03:03:29.422Z,91.93
2022-11-16T03:04:34.905Z,92.23
2022-11-16T03:05:42.138Z,92.16
2022-11-16T03:06:49.517Z,91.99
2022-11-16T03:07:57.692Z,92.14
2022-11-16T03:09:03.160Z,92.20
2022-11-16T03:10:05.455Z,92.05
2022-11-16T03:11:28.765Z,92.22
2022-11-16T03:12:32.416Z,92.10
2022-11-16T03:13:38.138Z,92.23
2022-11-16T03:14:43.492Z,91.97
2022-11-16T03:15:48.811Z,91.96
2022-11-16T03:16:55.954Z,92.10
2022-11-16T03:18:01.203Z,92.29
2022-11-16T03:19:06.450Z,92.28
2022-11-16T03:20:13.570Z,92.11
2022-11-16T03:21:24.641Z,92.47
2022-11-16T03:22:32.218Z,92.25
2022-11-16T03:23:33.959Z,92.20
2022-11-16T03:24:36.638Z,92.21
2022-11-16T03:25:44.019Z,92.33
2022-11-16T03:26:51.679Z,92.20
2022-11-16T03:27:59.044Z,92.39
2022-11-16T03:29:09.044Z,92.19
2022-11-16T03:30:14.474Z,92.30
2022-11-16T03:31:25.078Z,92.26
2022-11-16T03:32:34.089Z,92.13
2022-11-16T03:33:40.510Z,92.31
2022-11-16T03:34:50.588Z,92.35
2022-11-16T03:35:58.192Z,92.17
2022-11-16T03:37:02.162Z,92.31
2022-11-16T03:38:06.102Z,92.16
2022-11-16T03:39:13.144Z,92.21
2022-11-16T03:40:16.850Z,92.22
2022-11-16T03:41:23.235Z,92.16
2022-11-16T03:42:26.930Z,92.29
2022-11-16T03:43:31.192Z,92.34
2022-11-16T03:44:33.963Z,92.23
2022-11-16T03:45:37.933Z,92.35
2022-11-16T03:46:42.236Z,91.99
2022-11-16T03:47:45.680Z,92.50
2022-11-16T03:48:47.363Z,92.14
2022-11-16T03:49:49.840Z,92.18
2022-11-16T03:50:52.345Z,92.18
2022-11-16T03:51:55.183Z,92.32
2022-11-16T03:52:56.726Z,92.11
2022-11-16T03:53:59.209Z,92.22
2022-11-16T03:55:00.772Z,92.67
2022-11-16T03:56:04.122Z,92.34
2022-11-16T03:57:05.786Z,92.31
2022-11-16T03:58:08.583Z,92.39
2022-11-16T03:59:10.245Z,92.28
2022-11-16T04:00:13.702Z,92.32
2022-11-16T04:01:17.067Z,92.44
2022-11-16T04:02:20.956Z,92.43
2022-11-16T04:03:22.692Z,92.38
2022-11-16T04:04:43.101Z,92.39
2022-11-16T04:06:03.441Z,92.44
2022-11-16T04:07:23.796Z,92.13
2022-11-16T04:08:44.085Z,92.33
2022-11-16T04:10:06.283Z,92.14
2022-11-16T04:11:30.326Z,92.51
2022-11-16T04:12:50.848Z,92.53
2022-11-16T04:14:11.092Z,92.57
2022-11-16T04:15:31.407Z,92.35
2022-11-16T04:16:51.709Z,92.41
2022-11-16T04:18:13.368Z,92.38
2022-11-16T04:19:33.717Z,92.57
2022-11-16T04:21:08.276Z,92.38
2022-11-16T04:22:35.585Z,92.41
2022-11-16T04:23:55.895Z,92.26
2022-11-16T04:25:04.423Z,92.31
2022-11-16T04:26:08.216Z,92.28
2022-11-16T04:27:32.495Z,92.59
2022-11-16T04:28:35.705Z,92.26
2022-11-16T04:29:39.153Z,92.35
2022-11-16T04:31:01.398Z,92.49
2022-11-16T04:32:21.666Z,92.24
2022-11-16T04:33:43.488Z,92.37
2022-11-16T04:35:03.718Z,92.12
2022-11-16T04:36:24.541Z,92.33
2022-11-16T04:37:44.883Z,92.03
2022-11-16T04:38:47.352Z,92.35
2022-11-16T04:39:48.846Z,92.25
2022-11-16T04:40:51.459Z,92.32
2022-11-16T04:42:11.577Z,92.50
2022-11-16T04:43:13.067Z,92.38
2022-11-16T04:44:15.715Z,92.37
2022-11-16T04:45:36.118Z,92.13
2022-11-16T04:46:56.583Z,92.27
2022-11-16T04:47:58.343Z,92.40
2022-11-16T04:49:02.471Z,92.13
2022-11-16T04:50:04.820Z,92.47
2022-11-16T04:51:07.492Z,92.50
2022-11-16T04:52:09.025Z,92.44
2022-11-16T04:53:12.045Z,92.59
2022-11-16T04:54:13.819Z,92.52
2022-11-16T04:55:16.417Z,92.41
2022-11-16T04:56:17.972Z,92.40
2022-11-16T04:57:20.535Z,92.18
2022-11-16T04:58:22.072Z,92.40
2022-11-16T04:59:24.539Z,92.25
2022-11-16T05:00:26.095Z,92.25
2022-11-16T05:01:42.615Z,92.39
2022-11-16T05:02:45.442Z,92.29
2022-11-16T05:03:46.935Z,92.40
2022-11-16T05:04:50.984Z,92.52
2022-11-16T05:05:53.553Z,92.44
2022-11-16T05:06:55.096Z,92.32
2022-11-16T05:07:57.598Z,92.38
2022-11-16T05:08:59.100Z,92.30
2022-11-16T05:10:01.628Z,92.32
2022-11-16T05:11:03.233Z,92.38
2022-11-16T05:12:06.025Z,92.50
2022-11-16T05:13:07.548Z,92.56
2022-11-16T05:14:10.521Z,91.91
2022-11-16T05:15:12.195Z,91.93
2022-11-16T05:16:14.704Z,92.21
2022-11-16T05:17:17.519Z,92.45
2022-11-16T05:18:20.143Z,92.17
2022-11-16T05:19:40.349Z,92.12
2022-11-16T05:21:01.575Z,92.01
2022-11-16T05:22:03.132Z,91.80
2022-11-16T05:23:05.706Z,91.95
2022-11-16T05:24:25.879Z,92.15
2022-11-16T05:25:33.872Z,92.33
2022-11-16T05:26:38.591Z,92.35
2022-11-16T05:27:41.347Z,91.73
2022-11-16T05:28:42.981Z,92.00
2022-11-16T05:29:45.928Z,92.08
2022-11-16T05:30:47.545Z,92.04
2022-11-16T05:31:50.086Z,91.94
2022-11-16T05:32:52.601Z,92.07
2022-11-16T05:33:54.125Z,92.02
2022-11-16T05:34:56.646Z,91.92
2022-11-16T05:35:59.565Z,91.78
2022-11-16T05:37:02.383Z,92.18
2022-11-16T05:38:04.036Z,92.09
2022-11-16T05:39:06.820Z,91.84
2022-11-16T05:40:09.633Z,91.99
2022-11-16T05:41:12.120Z,91.91
2022-11-16T05:42:13.933Z,91.93
2022-11-16T05:43:16.508Z,92.05
2022-11-16T05:44:18.296Z,91.88
2022-11-16T05:45:21.317Z,91.58
2022-11-16T05:46:24.067Z,91.70
2022-11-16T05:47:26.538Z,91.93
2022-11-16T05:48:28.098Z,91.72
2022-11-16T05:49:30.764Z,91.75
2022-11-16T05:50:32.688Z,91.82
2022-11-16T05:51:38.445Z,91.76
2022-11-16T05:52:39.942Z,91.75
2022-11-16T05:53:45.311Z,91.75
2022-11-16T05:54:47.775Z,91.51
2022-11-16T05:55:49.341Z,91.30
2022-11-16T05:56:52.157Z,91.61
2022-11-16T05:57:53.742Z,91.67
2022-11-16T05:58:56.349Z,91.73
2022-11-16T05:59:57.859Z,91.70
2022-11-16T06:01:00.340Z,92.06
2022-11-16T06:02:03.836Z,91.64
2022-11-16T06:03:05.565Z,91.37
2022-11-16T06:04:08.319Z,91.59
2022-11-16T06:05:09.945Z,91.74
2022-11-16T06:06:12.509Z,91.58
2022-11-16T06:07:15.525Z,91.44
2022-11-16T06:08:18.138Z,91.52
2022-11-16T06:09:20.709Z,91.50
2022-11-16T06:10:22.350Z,91.41
2022-11-16T06:11:25.197Z,91.41
2022-11-16T06:12:27.665Z,91.34
2022-11-16T06:13:29.449Z,91.42
2022-11-16T06:14:32.089Z,91.40
2022-11-16T06:15:37.098Z,91.24
2022-11-16T06:16:39.759Z,91.28
2022-11-16T06:17:41.272Z,91.15
2022-11-16T06:18:45.368Z,91.26
2022-11-16T06:19:46.863Z,91.14
2022-11-16T06:20:49.834Z,90.97
2022-11-16T06:21:52.323Z,91.07
2022-11-16T06:22:55.283Z,91.05
2022-11-16T06:23:57.925Z,90.87
2022-11-16T06:24:59.554Z,91.10
2022-11-16T06:26:02.574Z,91.10
2022-11-16T06:27:04.288Z,90.95
2022-11-16T06:28:08.288Z,90.93
2022-11-16T06:29:10.148Z,90.95
2022-11-16T06:30:12.887Z,91.01
2022-11-16T06:31:14.538Z,90.80
2022-11-16T06:32:17.021Z,90.85
2022-11-16T06:33:19.492Z,91.10
2022-11-16T06:34:22.048Z,90.64
2022-11-16T06:35:23.634Z,90.90
2022-11-16T06:36:26.139Z,90.81
2022-11-16T06:37:27.818Z,90.82
2022-11-16T06:38:32.113Z,90.86
2022-11-16T06:39:34.451Z,91.01
2022-11-16T06:40:38.652Z,90.89
2022-11-16T06:41:41.810Z,90.84
2022-11-16T06:42:45.011Z,91.00
2022-11-16T06:43:47.552Z,90.89
2022-11-16T06:44:49.076Z,90.81
2022-11-16T06:45:52.996Z,90.90
2022-11-16T06:46:54.519Z,90.84
2022-11-16T06:47:57.090Z,90.83
2022-11-16T06:48:59.730Z,91.01
2022-11-16T06:50:01.423Z,90.94
2022-11-16T06:51:04.143Z,90.89
2022-11-16T06:52:05.754Z,91.00
2022-11-16T06:53:08.397Z,90.89
2022-11-16T06:54:12.345Z,90.72
2022-11-16T06:55:14.042Z,90.66
2022-11-16T06:56:17.257Z,90.71
2022-11-16T06:57:18.838Z,91.01
2022-11-16T06:58:21.363Z,90.87
2022-11-16T06:59:22.944Z,90.75
2022-11-16T07:00:25.549Z,90.89
2022-11-16T07:01:28.256Z,90.77
2022-11-16T07:02:29.901Z,91.00
2022-11-16T07:03:32.573Z,90.61
2022-11-16T07:04:34.242Z,90.83
2022-11-16T07:05:40.833Z,90.76
2022-11-16T07:06:42.454Z,90.96
2022-11-16T07:07:44.909Z,90.64
2022-11-16T07:08:47.546Z,90.74
2022-11-16T07:09:50.527Z,90.57
2022-11-16T07:10:53.029Z,90.71
2022-11-16T07:11:54.590Z,90.74
2022-11-16T07:12:57.213Z,90.38
2022-11-16T07:13:59.697Z,90.63
2022-11-16T07:15:01.242Z,90.56
2022-11-16T07:16:04.795Z,90.32
2022-11-16T07:17:09.664Z,90.76
2022-11-16T07:18:12.473Z,90.52
2022-11-16T07:19:14.162Z,90.41
2022-11-16T07:20:18.481Z,90.57
2022-11-16T07:21:20.038Z,90.67
2022-11-16T07:22:22.649Z,90.24
2022-11-16T07:23:25.228Z,90.40
2022-11-16T07:24:27.764Z,90.26
2022-11-16T07:25:32.116Z,90.36
2022-11-16T07:26:35.223Z,90.33
2022-11-16T07:27:36.887Z,90.33
2022-11-16T07:28:43.488Z,90.32
2022-11-16T07:29:49.415Z,90.31
2022-11-16T07:30:51.903Z,90.34
2022-11-16T07:31:53.456Z,90.23
2022-11-16T07:32:59.709Z,90.38
2022-11-16T07:34:01.362Z,90.48
2022-11-16T07:35:04.191Z,90.34
2022-11-16T07:36:08.447Z,90.37
2022-11-16T07:37:11.062Z,90.13
2022-11-16T07:38:16.842Z,90.29
2022-11-16T07:39:21.781Z,90.30
2022-11-16T07:40:24.284Z,90.21
2022-11-16T07:41:27.224Z,90.03
2022-11-16T07:42:29.686Z,90.08
2022-11-16T07:43:32.501Z,90.12
2022-11-16T07:44:35.076Z,90.01
2022-11-16T07:45:37.573Z,90.11
2022-11-16T07:46:47.898Z,90.14
2022-11-16T07:47:53.179Z,90.12
2022-11-16T07:48:54.923Z,90.15
2022-11-16T07:49:57.638Z,90.14
2022-11-16T07:51:03.387Z,89.99
2022-11-16T07:52:06.125Z,90.02
2022-11-16T07:53:08.582Z,90.00
2022-11-16T07:54:11.882Z,90.04
2022-11-16T07:55:14.607Z,89.80
2022-11-16T07:56:16.395Z,89.88
2022-11-16T07:57:20.323Z,90.18
2022-11-16T07:58:22.754Z,89.87
2022-11-16T07:59:25.687Z,90.06
2022-11-16T08:00:27.611Z,90.09
2022-11-16T08:01:30.333Z,90.04
2022-11-16T08:02:32.879Z,90.04
2022-11-16T08:03:35.770Z,89.72
2022-11-16T08:04:39.421Z,89.92
2022-11-16T08:05:40.940Z,89.79
2022-11-16T08:06:43.453Z,89.97
2022-11-16T08:07:44.977Z,89.84
2022-11-16T08:08:47.570Z,89.81
2022-11-16T08:09:49.900Z,89.85
2022-11-16T08:10:52.481Z,89.92
2022-11-16T08:11:55.011Z,89.78
2022-11-16T08:12:59.268Z,89.72
2022-11-16T08:14:01.883Z,89.75
2022-11-16T08:15:04.067Z,89.61
2022-11-16T08:16:09.450Z,89.60
2022-11-16T08:17:11.084Z,89.49
2022-11-16T08:18:13.614Z,89.63
2022-11-16T08:19:16.109Z,89.50
2022-11-16T08:20:17.970Z,89.32
2022-11-16T08:21:20.528Z,89.55
2022-11-16T08:22:23.023Z,89.48
2022-11-16T08:23:24.581Z,89.35
2022-11-16T08:24:27.460Z,89.52
2022-11-16T08:25:29.071Z,89.34
2022-11-16T08:26:32.703Z,89.28
2022-11-16T08:27:35.244Z,89.44
2022-11-16T08:28:39.976Z,89.26
2022-11-16T08:29:42.464Z,89.42
2022-11-16T08:30:44.960Z,89.19
2022-11-16T08:31:49.798Z,89.28
2022-11-16T08:32:51.382Z,89.25
2022-11-16T08:33:53.990Z,89.07
2022-11-16T08:34:56.619Z,88.95
2022-11-16T08:35:59.439Z,88.92
2022-11-16T08:37:01.910Z,88.86
2022-11-16T08:38:03.558Z,88.80
2022-11-16T08:39:06.159Z,88.83
2022-11-16T08:40:09.505Z,88.83
2022-11-16T08:41:11.140Z,88.67
2022-11-16T08:42:13.675Z,88.69
2022-11-16T08:43:16.702Z,88.37
2022-11-16T08:44:20.538Z,88.34
2022-11-16T08:45:22.137Z,88.32
2022-11-16T08:46:24.603Z,88.43
2022-11-16T08:47:26.214Z,88.01
2022-11-16T08:48:28.826Z,88.30
2022-11-16T08:49:30.395Z,87.92
2022-11-16T08:50:44.270Z,87.66
2022-11-16T08:51:55.905Z,87.84
2022-11-16T08:52:57.874Z,87.61
2022-11-16T08:54:01.531Z,87.64
2022-11-16T08:55:03.197Z,87.58
2022-11-16T08:56:06.152Z,87.45
2022-11-16T08:57:08.657Z,87.34
2022-11-16T08:58:10.982Z,87.37
2022-11-16T08:59:13.734Z,87.13
2022-11-16T09:00:18.145Z,86.99
2022-11-16T09:01:22.757Z,86.96
2022-11-16T09:02:25.829Z,86.37
2022-11-16T09:03:27.736Z,86.12
2022-11-16T09:04:35.680Z,86.34
2022-11-16T09:05:38.775Z,86.30
2022-11-16T09:06:41.345Z,86.00
2022-11-16T09:07:44.015Z,85.99
2022-11-16T09:08:47.469Z,85.87
2022-11-16T09:09:50.187Z,85.67
2022-11-16T09:10:51.748Z,85.37
2022-11-16T09:11:55.878Z,85.40
2022-11-16T09:12:58.127Z,85.25
2022-11-16T09:14:00.846Z,85.13
2022-11-16T09:15:03.094Z,84.92
2022-11-16T09:16:07.854Z,84.74
2022-11-16T09:17:10.622Z,84.60
2022-11-16T09:18:12.132Z,84.15
2022-11-16T09:19:14.696Z,84.33
2022-11-16T09:20:16.374Z,84.15
2022-11-16T09:21:20.382Z,83.94
2022-11-16T09:22:21.916Z,83.84
2022-11-16T09:23:25.723Z,83.46
2022-11-16T09:24:28.487Z,83.53
2022-11-16T09:25:31.023Z,83.09
2022-11-16T09:26:32.573Z,83.11
2022-11-16T09:27:35.047Z,82.93
2022-11-16T09:28:36.924Z,82.78
2022-11-16T09:29:39.709Z,82.52
2022-11-16T09:30:41.577Z,82.35
2022-11-16T09:31:45.618Z,82.09
2022-11-16T09:32:47.221Z,81.88
2022-11-16T09:33:49.735Z,81.72
2022-11-16T09:34:52.259Z,81.50
2022-11-16T09:35:53.800Z,81.23
2022-11-16T09:36:56.274Z,80.94
2022-11-16T09:37:57.769Z,80.74
2022-11-16T09:39:28.786Z,80.46
2022-11-16T09:40:23.409Z,80.25
2022-11-16T09:41:41.180Z,80.01
2022-11-16T09:42:53.581Z,79.91
2022-11-16T09:44:04.007Z,79.67
2022-11-16T09:45:11.951Z,79.45
2022-11-16T09:46:22.283Z,79.63
2022-11-16T09:47:40.312Z,79.06
2022-11-16T09:48:46.236Z,79.21
2022-11-16T09:49:58.231Z,78.83
2022-11-16T09:51:08.107Z,78.86
2022-11-16T09:52:14.517Z,78.55
2022-11-16T09:53:34.599Z,78.42
2022-11-16T09:54:40.203Z,78.38
2022-11-16T09:55:48.485Z,77.96
2022-11-16T09:56:54.304Z,77.90
2022-11-16T09:58:00.690Z,77.84
2022-11-16T09:59:07.097Z,77.58
2022-11-16T10:00:23.544Z,77.55
2022-11-16T10:01:29.182Z,77.15
2022-11-16T10:02:36.486Z,77.23
2022-11-16T10:03:44.130Z,76.99
2022-11-16T10:04:57.749Z,76.85
2022-11-16T10:06:04.179Z,76.81
2022-11-16T10:07:13.810Z,76.34
2022-11-16T10:08:25.500Z,76.46
2022-11-16T10:09:28.841Z,76.32
2022-11-16T10:10:37.597Z,76.05
2022-11-16T10:11:50.072Z,75.77
2022-11-16T10:12:56.877Z,75.85
2022-11-16T10:14:09.257Z,75.78
2022-11-16T10:15:28.212Z,75.96
2022-11-16T10:16:37.982Z,75.88
2022-11-16T10:18:01.747Z,75.82
2022-11-16T10:19:13.192Z,75.55
2022-11-16T10:20:34.751Z,75.56
2022-11-16T10:21:48.804Z,75.66
2022-11-16T10:22:58.282Z,75.25
2022-11-16T10:24:24.313Z,75.04
2022-11-16T10:25:31.789Z,75.28
2022-11-16T10:26:44.235Z,75.40
2022-11-16T10:28:27.823Z,75.26
2022-11-16T10:29:40.793Z,75.06
2022-11-16T10:30:48.915Z,75.14
2022-11-16T10:32:04.209Z,74.92
2022-11-16T10:33:14.275Z,74.78
2022-11-16T10:34:20.172Z,75.12
2022-11-16T10:35:29.538Z,75.26
2022-11-16T10:36:36.923Z,75.14
2022-11-16T10:37:47.442Z,75.36
2022-11-16T10:38:50.027Z,75.04
2022-11-16T10:39:53.164Z,75.06
2022-11-16T10:40:58.751Z,74.69
2022-11-16T10:42:07.254Z,75.20
2022-11-16T10:43:14.551Z,74.47
2022-11-16T10:44:21.790Z,74.53
2022-11-16T10:45:29.815Z,74.87
2022-11-16T10:46:36.400Z,74.74
2022-11-16T10:47:44.569Z,74.81
2022-11-16T10:48:58.251Z,74.87
2022-11-16T10:50:01.653Z,74.97
2022-11-16T10:51:05.785Z,74.94
2022-11-16T10:52:07.397Z,74.78
2022-11-16T10:53:14.117Z,74.87
2022-11-16T10:54:17.382Z,74.59
2022-11-16T10:55:22.527Z,74.85
2022-11-16T10:56:29.959Z,74.85
2022-11-16T10:57:54.647Z,74.88
2022-11-16T10:59:00.238Z,74.57
2022-11-16T11:00:03.301Z,74.79
2022-11-16T11:01:28.158Z,74.42
2022-11-16T11:02:37.773Z,74.54
2022-11-16T11:03:40.242Z,74.57
2022-11-16T11:05:02.947Z,74.60
2022-11-16T11:06:08.472Z,74.33
2022-11-16T11:07:24.469Z,74.50
2022-11-16T11:08:30.350Z,74.44
2022-11-16T11:09:33.439Z,74.13
2022-11-16T11:10:38.565Z,74.05
2022-11-16T11:11:58.740Z,74.15
2022-11-16T11:13:21.705Z,74.02
2022-11-16T11:14:23.242Z,73.94
2022-11-16T11:15:26.807Z,73.78
2022-11-16T11:16:29.803Z,73.45
2022-11-16T11:17:33.619Z,73.76
2022-11-16T11:18:36.116Z,73.65
2022-11-16T11:19:37.804Z,73.68
2022-11-16T11:20:45.036Z,73.54
2022-11-16T11:21:48.635Z,73.50
2022-11-16T11:22:54.279Z,73.51
2022-11-16T11:24:16.100Z,73.49
2022-11-16T11:25:22.836Z,73.54
2022-11-16T11:26:35.938Z,73.27
2022-11-16T11:27:39.399Z,73.31
2022-11-16T11:28:47.807Z,73.13
2022-11-16T11:29:53.757Z,73.04
2022-11-16T11:31:00.326Z,73.19
2022-11-16T11:32:07.214Z,73.13
2022-11-16T11:33:12.495Z,72.91
2022-11-16T11:34:19.768Z,72.98
2022-11-16T11:35:26.838Z,72.89
2022-11-16T11:36:38.288Z,73.19
2022-11-16T11:37:40.872Z,72.96
2022-11-16T11:38:57.648Z,72.69
2022-11-16T11:40:22.476Z,72.75
2022-11-16T11:41:27.512Z,72.64
2022-11-16T11:42:29.041Z,72.50
2022-11-16T11:43:33.597Z,72.64
2022-11-16T11:44:44.709Z,72.59
2022-11-16T11:45:52.555Z,72.43
2022-11-16T11:48:33.685Z,72.35
2022-11-16T11:49:40.616Z,72.54
2022-11-16T11:50:48.543Z,72.38
2022-11-16T11:51:53.083Z,72.49
2022-11-16T11:53:00.697Z,72.53
2022-11-16T11:54:06.019Z,72.46
2022-11-16T11:55:08.767Z,72.46
2022-11-16T11:56:12.966Z,72.40
2022-11-16T11:57:16.445Z,72.28
2022-11-16T11:58:21.894Z,72.29
2022-11-16T11:59:27.330Z,72.24
2022-11-16T12:00:37.400Z,72.07
2022-11-16T12:02:00.355Z,72.06
2022-11-16T12:03:31.612Z,72.06
2022-11-16T12:05:15.507Z,72.11
2022-11-16T12:06:22.785Z,72.48
2022-11-16T12:07:40.411Z,72.15
2022-11-16T12:09:05.631Z,72.14
2022-11-16T12:10:19.639Z,72.14
2022-11-16T12:11:30.261Z,72.11
2022-11-16T12:12:43.491Z,71.81
2022-11-16T12:14:00.093Z,72.16
2022-11-16T12:15:23.290Z,72.03
2022-11-16T12:16:33.415Z,72.06
2022-11-16T12:17:49.801Z,72.09
2022-11-16T12:19:12.761Z,72.06
2022-11-16T12:20:29.040Z,72.14
2022-11-16T12:21:42.559Z,72.06
2022-11-16T12:23:26.207Z,71.99
2022-11-16T12:24:44.045Z,72.00
2022-11-16T12:25:54.308Z,72.02
2022-11-16T12:27:09.981Z,71.86
2022-11-16T12:28:24.879Z,71.95
2022-11-16T12:29:33.371Z,71.82
2022-11-16T12:30:45.726Z,71.95
2022-11-16T12:31:59.915Z,72.05
2022-11-16T12:33:21.798Z,71.72
2022-11-16T12:34:32.942Z,71.88
2022-11-16T12:35:45.790Z,71.76
2022-11-16T12:36:57.874Z,71.83
2022-11-16T12:38:10.669Z,71.74
2022-11-16T12:39:23.741Z,71.65
2022-11-16T12:40:38.521Z,71.42
2022-11-16T12:42:22.205Z,71.48
2022-11-16T12:43:36.525Z,71.43
2022-11-16T12:45:03.070Z,71.42
2022-11-16T12:46:16.403Z,71.40
2022-11-16T12:47:28.270Z,71.12
2022-11-16T12:49:03.089Z,71.21
2022-11-16T12:50:16.677Z,71.30
2022-11-16T12:51:33.678Z,71.29
2022-11-16T12:52:52.529Z,71.36
2022-11-16T12:54:27.014Z,71.15
2022-11-16T12:55:40.783Z,71.09
2022-11-16T12:56:49.769Z,71.05
2022-11-16T12:58:03.316Z,70.91
2022-11-16T12:59:22.413Z,70.78
2022-11-16T13:00:25.055Z,70.67
2022-11-16T13:01:35.595Z,70.33
2022-11-16T13:02:59.930Z,70.48
2022-11-16T13:04:07.205Z,70.28
2022-11-16T13:05:17.949Z,70.24
2022-11-16T13:06:25.771Z,70.08
2022-11-16T13:07:34.124Z,69.97
2022-11-16T13:08:44.546Z,69.90
2022-11-16T13:09:53.183Z,69.70
2022-11-16T13:11:05.285Z,69.60
2022-11-16T13:12:14.108Z,69.69
2022-11-16T13:13:36.035Z,69.69
2022-11-16T13:14:42.875Z,69.92
2022-11-16T13:15:46.268Z,70.06
2022-11-16T13:16:50.100Z,69.83
2022-11-16T13:17:56.652Z,69.83
2022-11-16T13:19:01.652Z,70.11
2022-11-16T13:20:19.924Z,70.14
2022-11-16T13:21:32.373Z,70.17
2022-11-16T13:22:37.596Z,70.14
2022-11-16T13:23:50.607Z,70.03
2022-11-16T13:25:00.953Z,69.95
2022-11-16T13:26:10.449Z,69.72
2022-11-16T13:27:35.318Z,70.06
2022-11-16T13:28:44.320Z,69.64
2022-11-16T13:29:54.601Z,69.64
2022-11-16T13:31:05.429Z,69.47
2022-11-16T13:32:14.936Z,69.16
2022-11-16T13:33:29.300Z,69.20
2022-11-16T13:34:34.735Z,68.69
2022-11-16T13:35:38.247Z,68.55
2022-11-16T13:36:46.352Z,68.61
2022-11-16T13:37:48.992Z,68.77
2022-11-16T13:38:53.142Z,68.65
2022-11-16T13:40:23.011Z,68.18
2022-11-16T13:41:32.151Z,68.33
2022-11-16T13:42:36.660Z,68.17
2022-11-16T13:43:48.070Z,67.98
2022-11-16T13:44:51.748Z,68.11
2022-11-16T13:45:58.134Z,67.92
2022-11-16T13:47:04.439Z,67.83
2022-11-16T13:48:18.370Z,67.87
2022-11-16T13:49:25.523Z,67.89
2022-11-16T13:50:37.078Z,67.93
2022-11-16T13:51:40.163Z,67.91
2022-11-16T13:53:28.424Z,67.98
2022-11-16T13:55:33.036Z,68.21
2022-11-16T13:56:48.025Z,68.46
2022-11-16T13:57:52.787Z,68.51
2022-11-16T13:58:55.574Z,68.49
2022-11-16T14:00:11.008Z,68.43
2022-11-16T14:01:20.051Z,68.41
2022-11-16T14:02:31.278Z,68.68
2022-11-16T14:03:38.473Z,68.44
2022-11-16T14:04:44.435Z,68.55
2022-11-16T14:05:48.212Z,68.62
2022-11-16T14:06:58.752Z,68.69
2022-11-16T14:08:40.467Z,68.39
2022-11-16T14:09:43.874Z,68.72
2022-11-16T14:11:01.905Z,68.60
2022-11-16T14:12:36.879Z,68.72
2022-11-16T14:13:42.136Z,68.73
2022-11-16T14:15:13.333Z,68.87
2022-11-16T14:16:45.436Z,68.86
2022-11-16T14:17:51.556Z,68.84
2022-11-16T14:18:56.143Z,68.93
2022-11-16T14:19:58.079Z,69.00
2022-11-16T14:21:07.261Z,68.86
2022-11-16T14:22:20.664Z,69.11
2022-11-16T14:23:49.045Z,68.88
2022-11-16T14:24:55.657Z,68.96
2022-11-16T14:26:12.980Z,68.78